sensor_id;sensor_type;location;lat;lon;timestamp;P1;durP1;ratioP1;P2;durP2;ratioP2
73919;SDS011;62266;53.348;-1.496;2024-02-26T00:01:54;10.13;;;5.17;;
73919;SDS011;62266;53.348;-1.496;2024-02-26T00:07:15;11.05;;;5.50;;
73919;SDS011;62266;53.348;-1.496;2024-02-26T00:10:00;12.05;;;5.00;;
73919;SDS011;62266;53.348;-1.496;2024-02-26T00:12:44;9.82;;;5.45;;
73919;SDS011;62266;53.348;-1.496;2024-02-26T00:15:29;11.30;;;4.90;;
73919;SDS011;62266;53.348;-1.496;2024-02-26T00:18:13;9.25;;;5.07;;
73919;SDS011;62266;53.348;-1.496;2024-02-26T00:20:57;9.80;;;4.40;;
73919;SDS011;62266;53.348;-1.496;2024-02-26T00:23:41;7.93;;;4.15;;
73919;SDS011;62266;53.348;-1.496;2024-02-26T00:26:25;7.07;;;4.60;;
73919;SDS011;62266;53.348;-1.496;2024-02-26T00:29:09;9.33;;;4.67;;
73919;SDS011;62266;53.348;-1.496;2024-02-26T00:31:53;10.88;;;5.10;;
73919;SDS011;62266;53.348;-1.496;2024-02-26T00:34:40;10.45;;;5.05;;
73919;SDS011;62266;53.348;-1.496;2024-02-26T00:37:25;7.90;;;4.70;;
73919;SDS011;62266;53.348;-1.496;2024-02-26T00:40:09;7.80;;;4.35;;
73919;SDS011;62266;53.348;-1.496;2024-02-26T00:42:54;9.87;;;4.60;;
73919;SDS011;62266;53.348;-1.496;2024-02-26T00:45:38;8.35;;;4.72;;
73919;SDS011;62266;53.348;-1.496;2024-02-26T00:48:21;10.82;;;4.25;;
73919;SDS011;62266;53.348;-1.496;2024-02-26T00:51:05;8.07;;;4.30;;
73919;SDS011;62266;53.348;-1.496;2024-02-26T00:53:51;9.70;;;4.38;;
73919;SDS011;62266;53.348;-1.496;2024-02-26T00:56:35;9.20;;;4.60;;
73919;SDS011;62266;53.348;-1.496;2024-02-26T00:59:19;7.05;;;4.10;;
73919;SDS011;62266;53.348;-1.496;2024-02-26T01:02:03;8.77;;;4.57;;
73919;SDS011;62266;53.348;-1.496;2024-02-26T01:04:49;11.32;;;4.75;;
73919;SDS011;62266;53.348;-1.496;2024-02-26T01:07:33;7.40;;;4.10;;
73919;SDS011;62266;53.348;-1.496;2024-02-26T01:10:19;9.73;;;4.10;;
73919;SDS011;62266;53.348;-1.496;2024-02-26T01:13:04;7.93;;;4.13;;
73919;SDS011;62266;53.348;-1.496;2024-02-26T01:15:48;9.38;;;4.38;;
73919;SDS011;62266;53.348;-1.496;2024-02-26T01:18:32;9.32;;;4.50;;
73919;SDS011;62266;53.348;-1.496;2024-02-26T01:21:16;9.65;;;3.90;;
73919;SDS011;62266;53.348;-1.496;2024-02-26T01:24:00;9.07;;;3.80;;
73919;SDS011;62266;53.348;-1.496;2024-02-26T01:26:44;7.45;;;3.80;;
73919;SDS011;62266;53.348;-1.496;2024-02-26T01:29:28;9.13;;;3.80;;
73919;SDS011;62266;53.348;-1.496;2024-02-26T01:32:12;7.70;;;3.50;;
73919;SDS011;62266;53.348;-1.496;2024-02-26T01:34:56;8.57;;;4.05;;
73919;SDS011;62266;53.348;-1.496;2024-02-26T01:37:41;7.33;;;3.47;;
73919;SDS011;62266;53.348;-1.496;2024-02-26T01:40:26;6.22;;;3.33;;
73919;SDS011;62266;53.348;-1.496;2024-02-26T01:43:11;9.57;;;3.92;;
73919;SDS011;62266;53.348;-1.496;2024-02-26T01:45:55;8.52;;;3.13;;
73919;SDS011;62266;53.348;-1.496;2024-02-26T01:48:42;7.05;;;3.00;;
73919;SDS011;62266;53.348;-1.496;2024-02-26T01:51:27;7.23;;;3.20;;
73919;SDS011;62266;53.348;-1.496;2024-02-26T01:54:11;6.07;;;2.90;;
73919;SDS011;62266;53.348;-1.496;2024-02-26T01:56:56;6.40;;;3.08;;
73919;SDS011;62266;53.348;-1.496;2024-02-26T01:59:40;7.38;;;3.15;;
73919;SDS011;62266;53.348;-1.496;2024-02-26T02:02:25;6.60;;;3.47;;
73919;SDS011;62266;53.348;-1.496;2024-02-26T02:05:09;7.33;;;3.30;;
73919;SDS011;62266;53.348;-1.496;2024-02-26T02:07:53;9.57;;;3.50;;
73919;SDS011;62266;53.348;-1.496;2024-02-26T02:10:38;5.45;;;3.25;;
73919;SDS011;62266;53.348;-1.496;2024-02-26T02:13:22;7.53;;;3.00;;
73919;SDS011;62266;53.348;-1.496;2024-02-26T02:16:06;5.85;;;2.85;;
73919;SDS011;62266;53.348;-1.496;2024-02-26T02:18:51;7.50;;;2.93;;
73919;SDS011;62266;53.348;-1.496;2024-02-26T02:21:35;8.20;;;3.05;;
73919;SDS011;62266;53.348;-1.496;2024-02-26T02:24:19;7.70;;;2.90;;
73919;SDS011;62266;53.348;-1.496;2024-02-26T02:27:03;7.78;;;3.22;;
73919;SDS011;62266;53.348;-1.496;2024-02-26T02:29:48;5.25;;;3.15;;
73919;SDS011;62266;53.348;-1.496;2024-02-26T02:32:32;8.57;;;3.13;;
73919;SDS011;62266;53.348;-1.496;2024-02-26T02:35:16;4.50;;;2.90;;
73919;SDS011;62266;53.348;-1.496;2024-02-26T02:38:00;6.10;;;2.67;;
73919;SDS011;62266;53.348;-1.496;2024-02-26T02:40:45;6.50;;;2.85;;
73919;SDS011;62266;53.348;-1.496;2024-02-26T02:43:29;6.85;;;2.90;;
73919;SDS011;62266;53.348;-1.496;2024-02-26T02:46:13;4.83;;;2.40;;
73919;SDS011;62266;53.348;-1.496;2024-02-26T02:48:57;12.77;;;2.80;;
73919;SDS011;62266;53.348;-1.496;2024-02-26T02:51:42;8.73;;;2.40;;
73919;SDS011;62266;53.348;-1.496;2024-02-26T02:54:26;8.45;;;2.80;;
73919;SDS011;62266;53.348;-1.496;2024-02-26T02:57:10;3.78;;;2.20;;
73919;SDS011;62266;53.348;-1.496;2024-02-26T02:59:54;4.93;;;2.37;;
73919;SDS011;62266;53.348;-1.496;2024-02-26T03:02:38;7.28;;;2.85;;
73919;SDS011;62266;53.348;-1.496;2024-02-26T03:05:22;6.57;;;2.53;;
73919;SDS011;62266;53.348;-1.496;2024-02-26T03:08:06;9.88;;;3.53;;
73919;SDS011;62266;53.348;-1.496;2024-02-26T03:10:50;9.75;;;3.00;;
73919;SDS011;62266;53.348;-1.496;2024-02-26T03:13:34;5.10;;;2.53;;
73919;SDS011;62266;53.348;-1.496;2024-02-26T03:16:18;8.32;;;2.63;;
73919;SDS011;62266;53.348;-1.496;2024-02-26T03:19:02;6.75;;;2.22;;
73919;SDS011;62266;53.348;-1.496;2024-02-26T03:21:46;8.43;;;2.28;;
73919;SDS011;62266;53.348;-1.496;2024-02-26T03:24:30;8.52;;;2.85;;
73919;SDS011;62266;53.348;-1.496;2024-02-26T03:27:14;5.77;;;2.17;;
73919;SDS011;62266;53.348;-1.496;2024-02-26T03:29:59;5.53;;;2.50;;
73919;SDS011;62266;53.348;-1.496;2024-02-26T03:32:43;7.30;;;2.72;;
73919;SDS011;62266;53.348;-1.496;2024-02-26T03:35:27;7.13;;;2.60;;
73919;SDS011;62266;53.348;-1.496;2024-02-26T03:38:12;5.57;;;2.60;;
73919;SDS011;62266;53.348;-1.496;2024-02-26T03:40:57;5.27;;;1.93;;
73919;SDS011;62266;53.348;-1.496;2024-02-26T03:43:41;8.43;;;2.42;;
73919;SDS011;62266;53.348;-1.496;2024-02-26T03:46:26;6.25;;;2.67;;
73919;SDS011;62266;53.348;-1.496;2024-02-26T03:49:10;5.93;;;2.17;;
73919;SDS011;62266;53.348;-1.496;2024-02-26T03:51:54;5.55;;;2.22;;
73919;SDS011;62266;53.348;-1.496;2024-02-26T03:54:38;6.03;;;2.27;;
73919;SDS011;62266;53.348;-1.496;2024-02-26T03:57:22;7.30;;;2.13;;
73919;SDS011;62266;53.348;-1.496;2024-02-26T04:00:06;7.15;;;2.15;;
73919;SDS011;62266;53.348;-1.496;2024-02-26T04:02:50;4.35;;;1.83;;
73919;SDS011;62266;53.348;-1.496;2024-02-26T04:05:35;4.97;;;2.28;;
73919;SDS011;62266;53.348;-1.496;2024-02-26T04:08:19;4.13;;;1.87;;
73919;SDS011;62266;53.348;-1.496;2024-02-26T04:11:04;3.40;;;1.95;;
73919;SDS011;62266;53.348;-1.496;2024-02-26T04:13:51;7.55;;;2.30;;
73919;SDS011;62266;53.348;-1.496;2024-02-26T04:16:36;6.93;;;2.20;;
73919;SDS011;62266;53.348;-1.496;2024-02-26T04:19:20;7.40;;;2.20;;
73919;SDS011;62266;53.348;-1.496;2024-02-26T04:22:04;5.60;;;2.20;;
73919;SDS011;62266;53.348;-1.496;2024-02-26T04:24:48;6.70;;;2.05;;
73919;SDS011;62266;53.348;-1.496;2024-02-26T04:27:32;11.55;;;2.15;;
73919;SDS011;62266;53.348;-1.496;2024-02-26T04:30:16;6.43;;;2.88;;
73919;SDS011;62266;53.348;-1.496;2024-02-26T04:33:01;7.10;;;1.80;;
73919;SDS011;62266;53.348;-1.496;2024-02-26T04:35:46;7.03;;;2.17;;
73919;SDS011;62266;53.348;-1.496;2024-02-26T04:38:29;6.07;;;2.17;;
73919;SDS011;62266;53.348;-1.496;2024-02-26T04:41:13;4.78;;;2.47;;
73919;SDS011;62266;53.348;-1.496;2024-02-26T04:43:58;9.52;;;2.10;;
73919;SDS011;62266;53.348;-1.496;2024-02-26T04:46:41;4.88;;;2.05;;
73919;SDS011;62266;53.348;-1.496;2024-02-26T04:49:26;8.50;;;2.03;;
73919;SDS011;62266;53.348;-1.496;2024-02-26T04:52:09;6.68;;;2.00;;
73919;SDS011;62266;53.348;-1.496;2024-02-26T04:54:53;6.50;;;2.08;;
73919;SDS011;62266;53.348;-1.496;2024-02-26T04:57:38;4.22;;;1.70;;
73919;SDS011;62266;53.348;-1.496;2024-02-26T05:00:22;3.38;;;2.00;;
73919;SDS011;62266;53.348;-1.496;2024-02-26T05:03:06;5.87;;;2.20;;
73919;SDS011;62266;53.348;-1.496;2024-02-26T05:05:51;6.20;;;2.10;;
73919;SDS011;62266;53.348;-1.496;2024-02-26T05:08:35;5.50;;;2.00;;
73919;SDS011;62266;53.348;-1.496;2024-02-26T05:11:20;3.83;;;1.90;;
73919;SDS011;62266;53.348;-1.496;2024-02-26T05:14:04;4.07;;;1.80;;
73919;SDS011;62266;53.348;-1.496;2024-02-26T05:16:48;4.93;;;1.97;;
73919;SDS011;62266;53.348;-1.496;2024-02-26T05:19:32;6.47;;;1.85;;
73919;SDS011;62266;53.348;-1.496;2024-02-26T05:22:16;6.28;;;2.00;;
73919;SDS011;62266;53.348;-1.496;2024-02-26T05:25:01;4.72;;;1.90;;
73919;SDS011;62266;53.348;-1.496;2024-02-26T05:27:45;4.10;;;2.20;;
73919;SDS011;62266;53.348;-1.496;2024-02-26T05:30:29;6.17;;;2.33;;
73919;SDS011;62266;53.348;-1.496;2024-02-26T05:33:14;3.72;;;2.10;;
73919;SDS011;62266;53.348;-1.496;2024-02-26T05:35:58;5.63;;;2.38;;
73919;SDS011;62266;53.348;-1.496;2024-02-26T05:38:47;5.82;;;2.08;;
73919;SDS011;62266;53.348;-1.496;2024-02-26T05:41:32;6.70;;;2.00;;
73919;SDS011;62266;53.348;-1.496;2024-02-26T05:44:16;4.50;;;2.00;;
73919;SDS011;62266;53.348;-1.496;2024-02-26T05:47:00;4.13;;;2.03;;
73919;SDS011;62266;53.348;-1.496;2024-02-26T05:49:44;4.13;;;1.83;;
73919;SDS011;62266;53.348;-1.496;2024-02-26T05:52:28;5.70;;;2.25;;
73919;SDS011;62266;53.348;-1.496;2024-02-26T05:55:15;5.93;;;2.35;;
73919;SDS011;62266;53.348;-1.496;2024-02-26T05:58:00;5.57;;;2.00;;
73919;SDS011;62266;53.348;-1.496;2024-02-26T06:00:44;4.78;;;1.95;;
73919;SDS011;62266;53.348;-1.496;2024-02-26T06:03:27;7.70;;;2.28;;
73919;SDS011;62266;53.348;-1.496;2024-02-26T06:06:12;7.30;;;2.45;;
73919;SDS011;62266;53.348;-1.496;2024-02-26T06:08:58;4.50;;;2.10;;
73919;SDS011;62266;53.348;-1.496;2024-02-26T06:11:43;6.90;;;3.00;;
73919;SDS011;62266;53.348;-1.496;2024-02-26T06:14:27;4.68;;;2.30;;
73919;SDS011;62266;53.348;-1.496;2024-02-26T06:17:11;9.10;;;2.78;;
73919;SDS011;62266;53.348;-1.496;2024-02-26T06:19:55;6.90;;;2.60;;
73919;SDS011;62266;53.348;-1.496;2024-02-26T06:22:40;6.82;;;2.45;;
73919;SDS011;62266;53.348;-1.496;2024-02-26T06:25:24;7.20;;;2.97;;
73919;SDS011;62266;53.348;-1.496;2024-02-26T06:28:09;6.35;;;2.67;;
73919;SDS011;62266;53.348;-1.496;2024-02-26T06:30:54;5.43;;;2.85;;
73919;SDS011;62266;53.348;-1.496;2024-02-26T06:33:38;6.95;;;2.67;;
73919;SDS011;62266;53.348;-1.496;2024-02-26T06:36:22;2.83;;;2.33;;
73919;SDS011;62266;53.348;-1.496;2024-02-26T06:39:06;4.03;;;2.20;;
73919;SDS011;62266;53.348;-1.496;2024-02-26T06:41:52;6.22;;;2.38;;
73919;SDS011;62266;53.348;-1.496;2024-02-26T06:44:43;4.50;;;2.10;;
73919;SDS011;62266;53.348;-1.496;2024-02-26T06:47:28;5.78;;;2.15;;
73919;SDS011;62266;53.348;-1.496;2024-02-26T06:50:14;6.28;;;2.33;;
73919;SDS011;62266;53.348;-1.496;2024-02-26T06:52:58;4.90;;;2.30;;
73919;SDS011;62266;53.348;-1.496;2024-02-26T06:55:42;4.90;;;2.20;;
73919;SDS011;62266;53.348;-1.496;2024-02-26T06:58:26;4.57;;;2.40;;
73919;SDS011;62266;53.348;-1.496;2024-02-26T07:01:11;5.97;;;2.88;;
73919;SDS011;62266;53.348;-1.496;2024-02-26T07:03:56;5.35;;;3.17;;
73919;SDS011;62266;53.348;-1.496;2024-02-26T07:06:40;6.93;;;3.60;;
73919;SDS011;62266;53.348;-1.496;2024-02-26T07:09:25;7.32;;;3.22;;
73919;SDS011;62266;53.348;-1.496;2024-02-26T07:12:12;8.13;;;4.07;;
73919;SDS011;62266;53.348;-1.496;2024-02-26T07:14:57;7.60;;;4.28;;
73919;SDS011;62266;53.348;-1.496;2024-02-26T07:17:42;7.03;;;4.07;;
73919;SDS011;62266;53.348;-1.496;2024-02-26T07:20:30;11.77;;;4.63;;
73919;SDS011;62266;53.348;-1.496;2024-02-26T07:23:15;8.00;;;4.75;;
73919;SDS011;62266;53.348;-1.496;2024-02-26T07:26:00;9.38;;;5.20;;
73919;SDS011;62266;53.348;-1.496;2024-02-26T07:28:44;12.32;;;5.25;;
73919;SDS011;62266;53.348;-1.496;2024-02-26T07:31:29;8.77;;;5.10;;
73919;SDS011;62266;53.348;-1.496;2024-02-26T07:34:13;10.77;;;5.20;;
73919;SDS011;62266;53.348;-1.496;2024-02-26T07:36:57;11.63;;;4.88;;
73919;SDS011;62266;53.348;-1.496;2024-02-26T07:39:41;7.97;;;4.93;;
73919;SDS011;62266;53.348;-1.496;2024-02-26T07:42:25;9.05;;;4.60;;
73919;SDS011;62266;53.348;-1.496;2024-02-26T07:45:10;10.65;;;4.63;;
73919;SDS011;62266;53.348;-1.496;2024-02-26T07:47:54;11.90;;;4.17;;
73919;SDS011;62266;53.348;-1.496;2024-02-26T07:50:38;11.57;;;4.20;;
73919;SDS011;62266;53.348;-1.496;2024-02-26T07:53:24;9.57;;;3.88;;
73919;SDS011;62266;53.348;-1.496;2024-02-26T07:56:08;9.55;;;3.33;;
73919;SDS011;62266;53.348;-1.496;2024-02-26T07:58:53;11.15;;;3.30;;
73919;SDS011;62266;53.348;-1.496;2024-02-26T08:01:37;5.67;;;3.10;;
73919;SDS011;62266;53.348;-1.496;2024-02-26T08:04:22;5.97;;;3.13;;
73919;SDS011;62266;53.348;-1.496;2024-02-26T08:07:07;8.23;;;3.38;;
73919;SDS011;62266;53.348;-1.496;2024-02-26T08:09:51;11.57;;;3.28;;
73919;SDS011;62266;53.348;-1.496;2024-02-26T08:12:36;5.57;;;2.95;;
73919;SDS011;62266;53.348;-1.496;2024-02-26T08:15:21;8.37;;;2.60;;
73919;SDS011;62266;53.348;-1.496;2024-02-26T08:18:06;5.65;;;2.50;;
73919;SDS011;62266;53.348;-1.496;2024-02-26T08:20:51;6.57;;;3.35;;
73919;SDS011;62266;53.348;-1.496;2024-02-26T08:23:36;6.65;;;2.85;;
73919;SDS011;62266;53.348;-1.496;2024-02-26T08:26:20;6.18;;;2.72;;
73919;SDS011;62266;53.348;-1.496;2024-02-26T08:29:06;7.80;;;2.43;;
73919;SDS011;62266;53.348;-1.496;2024-02-26T08:31:50;9.23;;;2.67;;
73919;SDS011;62266;53.348;-1.496;2024-02-26T08:34:34;5.13;;;2.70;;
73919;SDS011;62266;53.348;-1.496;2024-02-26T08:37:18;6.45;;;2.58;;
73919;SDS011;62266;53.348;-1.496;2024-02-26T08:40:02;5.65;;;2.72;;
73919;SDS011;62266;53.348;-1.496;2024-02-26T08:42:50;6.73;;;2.43;;
73919;SDS011;62266;53.348;-1.496;2024-02-26T08:45:34;6.63;;;2.45;;
73919;SDS011;62266;53.348;-1.496;2024-02-26T08:48:18;6.32;;;2.88;;
73919;SDS011;62266;53.348;-1.496;2024-02-26T08:51:04;10.35;;;3.28;;
73919;SDS011;62266;53.348;-1.496;2024-02-26T08:53:50;6.60;;;2.80;;
73919;SDS011;62266;53.348;-1.496;2024-02-26T08:56:35;11.07;;;3.00;;
73919;SDS011;62266;53.348;-1.496;2024-02-26T08:59:19;4.95;;;2.83;;
73919;SDS011;62266;53.348;-1.496;2024-02-26T09:02:07;8.02;;;2.95;;
73919;SDS011;62266;53.348;-1.496;2024-02-26T09:04:52;6.50;;;2.20;;
73919;SDS011;62266;53.348;-1.496;2024-02-26T09:07:38;5.25;;;2.20;;
73919;SDS011;62266;53.348;-1.496;2024-02-26T09:10:23;5.40;;;2.23;;
73919;SDS011;62266;53.348;-1.496;2024-02-26T09:13:07;3.97;;;1.95;;
73919;SDS011;62266;53.348;-1.496;2024-02-26T09:15:51;5.07;;;2.30;;
73919;SDS011;62266;53.348;-1.496;2024-02-26T09:18:34;5.40;;;1.90;;
73919;SDS011;62266;53.348;-1.496;2024-02-26T09:21:18;8.32;;;2.30;;
73919;SDS011;62266;53.348;-1.496;2024-02-26T09:24:07;4.33;;;1.80;;
73919;SDS011;62266;53.348;-1.496;2024-02-26T09:26:51;2.72;;;2.00;;
73919;SDS011;62266;53.348;-1.496;2024-02-26T09:29:35;5.43;;;2.20;;
73919;SDS011;62266;53.348;-1.496;2024-02-26T09:32:19;3.67;;;1.80;;
73919;SDS011;62266;53.348;-1.496;2024-02-26T09:35:04;4.53;;;1.90;;
73919;SDS011;62266;53.348;-1.496;2024-02-26T09:37:51;4.20;;;2.30;;
73919;SDS011;62266;53.348;-1.496;2024-02-26T09:40:35;4.05;;;1.80;;
73919;SDS011;62266;53.348;-1.496;2024-02-26T09:43:23;4.90;;;2.33;;
73919;SDS011;62266;53.348;-1.496;2024-02-26T09:46:07;5.75;;;1.73;;
73919;SDS011;62266;53.348;-1.496;2024-02-26T09:48:52;5.10;;;1.80;;
73919;SDS011;62266;53.348;-1.496;2024-02-26T09:51:37;3.40;;;1.60;;
73919;SDS011;62266;53.348;-1.496;2024-02-26T09:54:22;4.40;;;1.40;;
73919;SDS011;62266;53.348;-1.496;2024-02-26T09:57:09;3.30;;;1.52;;
73919;SDS011;62266;53.348;-1.496;2024-02-26T09:59:59;1.58;;;0.98;;
73919;SDS011;62266;53.348;-1.496;2024-02-26T10:02:45;2.78;;;1.02;;
73919;SDS011;62266;53.348;-1.496;2024-02-26T10:05:31;3.43;;;1.07;;
73919;SDS011;62266;53.348;-1.496;2024-02-26T10:08:17;1.50;;;0.88;;
73919;SDS011;62266;53.348;-1.496;2024-02-26T10:11:03;2.90;;;0.80;;
73919;SDS011;62266;53.348;-1.496;2024-02-26T10:13:48;1.45;;;0.90;;
73919;SDS011;62266;53.348;-1.496;2024-02-26T10:16:32;1.00;;;0.80;;
73919;SDS011;62266;53.348;-1.496;2024-02-26T10:19:25;1.60;;;0.70;;
73919;SDS011;62266;53.348;-1.496;2024-02-26T10:22:16;3.10;;;0.80;;
73919;SDS011;62266;53.348;-1.496;2024-02-26T10:25:00;2.45;;;0.82;;
73919;SDS011;62266;53.348;-1.496;2024-02-26T10:27:44;2.00;;;0.73;;
73919;SDS011;62266;53.348;-1.496;2024-02-26T10:30:29;4.38;;;1.02;;
73919;SDS011;62266;53.348;-1.496;2024-02-26T10:33:14;2.10;;;0.90;;
73919;SDS011;62266;53.348;-1.496;2024-02-26T10:35:58;6.50;;;1.23;;
73919;SDS011;62266;53.348;-1.496;2024-02-26T10:38:43;1.23;;;0.65;;
73919;SDS011;62266;53.348;-1.496;2024-02-26T10:41:27;2.10;;;0.77;;
73919;SDS011;62266;53.348;-1.496;2024-02-26T10:44:11;2.55;;;0.77;;
73919;SDS011;62266;53.348;-1.496;2024-02-26T10:46:56;2.50;;;0.83;;
73919;SDS011;62266;53.348;-1.496;2024-02-26T10:49:44;2.22;;;0.82;;
73919;SDS011;62266;53.348;-1.496;2024-02-26T10:52:34;3.65;;;0.60;;
73919;SDS011;62266;53.348;-1.496;2024-02-26T10:55:22;2.95;;;0.93;;
73919;SDS011;62266;53.348;-1.496;2024-02-26T10:58:06;2.72;;;0.70;;
73919;SDS011;62266;53.348;-1.496;2024-02-26T11:00:52;2.53;;;0.80;;
73919;SDS011;62266;53.348;-1.496;2024-02-26T11:03:36;3.22;;;0.80;;
73919;SDS011;62266;53.348;-1.496;2024-02-26T11:06:21;3.55;;;1.10;;
73919;SDS011;62266;53.348;-1.496;2024-02-26T11:09:06;9.98;;;1.05;;
73919;SDS011;62266;53.348;-1.496;2024-02-26T11:11:50;5.72;;;1.10;;
73919;SDS011;62266;53.348;-1.496;2024-02-26T11:14:42;3.80;;;1.07;;
73919;SDS011;62266;53.348;-1.496;2024-02-26T11:17:28;3.45;;;0.95;;
73919;SDS011;62266;53.348;-1.496;2024-02-26T11:20:15;3.00;;;1.13;;
73919;SDS011;62266;53.348;-1.496;2024-02-26T11:23:00;2.65;;;0.98;;
73919;SDS011;62266;53.348;-1.496;2024-02-26T11:25:45;3.50;;;1.00;;
73919;SDS011;62266;53.348;-1.496;2024-02-26T11:28:29;3.00;;;0.80;;
73919;SDS011;62266;53.348;-1.496;2024-02-26T11:31:14;4.72;;;1.10;;
73919;SDS011;62266;53.348;-1.496;2024-02-26T11:33:58;6.60;;;1.35;;
73919;SDS011;62266;53.348;-1.496;2024-02-26T11:36:42;3.47;;;1.10;;
73919;SDS011;62266;53.348;-1.496;2024-02-26T11:39:27;2.05;;;0.80;;
73919;SDS011;62266;53.348;-1.496;2024-02-26T11:42:15;1.33;;;0.90;;
73919;SDS011;62266;53.348;-1.496;2024-02-26T11:44:59;2.55;;;0.80;;
73919;SDS011;62266;53.348;-1.496;2024-02-26T11:47:44;3.58;;;1.05;;
73919;SDS011;62266;53.348;-1.496;2024-02-26T11:50:41;1.80;;;1.02;;
73919;SDS011;62266;53.348;-1.496;2024-02-26T11:59:11;4.30;;;1.60;;
73919;SDS011;62266;53.348;-1.496;2024-02-26T12:01:56;4.53;;;1.10;;
73919;SDS011;62266;53.348;-1.496;2024-02-26T12:04:41;3.45;;;0.98;;
73919;SDS011;62266;53.348;-1.496;2024-02-26T12:07:25;3.30;;;1.63;;
73919;SDS011;62266;53.348;-1.496;2024-02-26T12:10:14;8.03;;;2.27;;
73919;SDS011;62266;53.348;-1.496;2024-02-26T12:13:05;5.07;;;2.22;;
73919;SDS011;62266;53.348;-1.496;2024-02-26T12:15:57;4.63;;;1.20;;
73919;SDS011;62266;53.348;-1.496;2024-02-26T12:18:44;3.00;;;1.00;;
73919;SDS011;62266;53.348;-1.496;2024-02-26T12:21:29;2.38;;;0.90;;
73919;SDS011;62266;53.348;-1.496;2024-02-26T12:24:14;4.53;;;1.20;;
73919;SDS011;62266;53.348;-1.496;2024-02-26T12:27:00;2.17;;;0.85;;
73919;SDS011;62266;53.348;-1.496;2024-02-26T12:29:43;3.58;;;1.02;;
73919;SDS011;62266;53.348;-1.496;2024-02-26T12:32:28;4.80;;;0.95;;
73919;SDS011;62266;53.348;-1.496;2024-02-26T12:35:11;2.42;;;0.60;;
73919;SDS011;62266;53.348;-1.496;2024-02-26T12:37:57;3.83;;;0.83;;
73919;SDS011;62266;53.348;-1.496;2024-02-26T12:40:41;2.42;;;0.60;;
73919;SDS011;62266;53.348;-1.496;2024-02-26T12:43:26;1.88;;;0.80;;
73919;SDS011;62266;53.348;-1.496;2024-02-26T12:46:11;3.13;;;0.70;;
73919;SDS011;62266;53.348;-1.496;2024-02-26T12:48:56;1.13;;;0.80;;
73919;SDS011;62266;53.348;-1.496;2024-02-26T12:51:42;4.00;;;1.10;;
73919;SDS011;62266;53.348;-1.496;2024-02-26T12:54:25;2.22;;;0.70;;
73919;SDS011;62266;53.348;-1.496;2024-02-26T12:57:09;4.18;;;0.90;;
73919;SDS011;62266;53.348;-1.496;2024-02-26T12:59:54;2.60;;;0.90;;
73919;SDS011;62266;53.348;-1.496;2024-02-26T13:02:38;4.00;;;0.70;;
73919;SDS011;62266;53.348;-1.496;2024-02-26T13:05:22;2.73;;;0.80;;
73919;SDS011;62266;53.348;-1.496;2024-02-26T13:08:07;3.65;;;0.70;;
73919;SDS011;62266;53.348;-1.496;2024-02-26T13:10:51;2.92;;;0.82;;
73919;SDS011;62266;53.348;-1.496;2024-02-26T13:13:36;2.75;;;0.70;;
73919;SDS011;62266;53.348;-1.496;2024-02-26T13:16:23;2.28;;;0.52;;
73919;SDS011;62266;53.348;-1.496;2024-02-26T13:19:09;3.37;;;0.70;;
73919;SDS011;62266;53.348;-1.496;2024-02-26T13:21:53;2.38;;;0.60;;
73919;SDS011;62266;53.348;-1.496;2024-02-26T13:24:38;1.45;;;0.40;;
73919;SDS011;62266;53.348;-1.496;2024-02-26T13:27:22;2.67;;;0.47;;
73919;SDS011;62266;53.348;-1.496;2024-02-26T13:32:54;2.30;;;0.50;;
73919;SDS011;62266;53.348;-1.496;2024-02-26T13:35:39;1.90;;;0.45;;
73919;SDS011;62266;53.348;-1.496;2024-02-26T13:38:24;2.08;;;0.40;;
73919;SDS011;62266;53.348;-1.496;2024-02-26T13:41:08;1.65;;;0.73;;
73919;SDS011;62266;53.348;-1.496;2024-02-26T13:43:52;2.25;;;0.70;;
73919;SDS011;62266;53.348;-1.496;2024-02-26T13:46:37;2.50;;;0.40;;
73919;SDS011;62266;53.348;-1.496;2024-02-26T13:49:22;1.95;;;0.50;;
73919;SDS011;62266;53.348;-1.496;2024-02-26T13:52:07;1.48;;;0.40;;
73919;SDS011;62266;53.348;-1.496;2024-02-26T13:54:51;1.23;;;0.38;;
73919;SDS011;62266;53.348;-1.496;2024-02-26T13:57:35;1.77;;;0.43;;
73919;SDS011;62266;53.348;-1.496;2024-02-26T14:00:19;1.63;;;0.40;;
73919;SDS011;62266;53.348;-1.496;2024-02-26T14:03:04;1.15;;;0.40;;
73919;SDS011;62266;53.348;-1.496;2024-02-26T14:05:48;2.90;;;0.60;;
73919;SDS011;62266;53.348;-1.496;2024-02-26T14:08:32;3.53;;;0.50;;
73919;SDS011;62266;53.348;-1.496;2024-02-26T14:11:17;3.00;;;0.68;;
73919;SDS011;62266;53.348;-1.496;2024-02-26T14:14:01;3.20;;;0.53;;
73919;SDS011;62266;53.348;-1.496;2024-02-26T14:16:45;1.25;;;0.40;;
73919;SDS011;62266;53.348;-1.496;2024-02-26T14:19:29;1.65;;;0.30;;
73919;SDS011;62266;53.348;-1.496;2024-02-26T14:22:14;2.33;;;0.47;;
73919;SDS011;62266;53.348;-1.496;2024-02-26T14:24:59;2.78;;;0.60;;
73919;SDS011;62266;53.348;-1.496;2024-02-26T14:27:43;5.23;;;0.40;;
73919;SDS011;62266;53.348;-1.496;2024-02-26T14:30:28;3.10;;;0.30;;
73919;SDS011;62266;53.348;-1.496;2024-02-26T14:33:11;4.13;;;0.40;;
73919;SDS011;62266;53.348;-1.496;2024-02-26T14:35:56;2.33;;;0.50;;
73919;SDS011;62266;53.348;-1.496;2024-02-26T14:38:40;1.67;;;0.52;;
73919;SDS011;62266;53.348;-1.496;2024-02-26T14:41:24;2.17;;;0.40;;
73919;SDS011;62266;53.348;-1.496;2024-02-26T14:44:08;2.97;;;1.38;;
73919;SDS011;62266;53.348;-1.496;2024-02-26T14:46:52;3.97;;;0.80;;
73919;SDS011;62266;53.348;-1.496;2024-02-26T14:49:37;2.03;;;0.40;;
73919;SDS011;62266;53.348;-1.496;2024-02-26T14:52:21;6.10;;;1.08;;
73919;SDS011;62266;53.348;-1.496;2024-02-26T14:55:05;3.13;;;0.60;;
73919;SDS011;62266;53.348;-1.496;2024-02-26T14:57:49;3.03;;;0.50;;
73919;SDS011;62266;53.348;-1.496;2024-02-26T15:00:33;1.52;;;0.50;;
73919;SDS011;62266;53.348;-1.496;2024-02-26T15:03:18;3.88;;;0.80;;
73919;SDS011;62266;53.348;-1.496;2024-02-26T15:06:02;2.55;;;0.90;;
73919;SDS011;62266;53.348;-1.496;2024-02-26T15:08:47;3.53;;;1.07;;
73919;SDS011;62266;53.348;-1.496;2024-02-26T15:11:31;1.08;;;0.30;;
73919;SDS011;62266;53.348;-1.496;2024-02-26T15:14:15;5.55;;;0.77;;
73919;SDS011;62266;53.348;-1.496;2024-02-26T15:16:59;2.72;;;0.70;;
73919;SDS011;62266;53.348;-1.496;2024-02-26T15:19:44;4.55;;;1.08;;
73919;SDS011;62266;53.348;-1.496;2024-02-26T15:22:28;0.90;;;0.50;;
73919;SDS011;62266;53.348;-1.496;2024-02-26T15:25:12;1.10;;;0.52;;
73919;SDS011;62266;53.348;-1.496;2024-02-26T15:27:56;2.70;;;0.60;;
73919;SDS011;62266;53.348;-1.496;2024-02-26T15:30:40;1.15;;;0.10;;
73919;SDS011;62266;53.348;-1.496;2024-02-26T15:33:24;1.67;;;0.80;;
73919;SDS011;62266;53.348;-1.496;2024-02-26T15:36:08;2.03;;;0.23;;
73919;SDS011;62266;53.348;-1.496;2024-02-26T15:38:54;1.08;;;0.32;;
73919;SDS011;62266;53.348;-1.496;2024-02-26T15:41:38;1.02;;;0.57;;
73919;SDS011;62266;53.348;-1.496;2024-02-26T15:44:22;2.70;;;0.45;;
73919;SDS011;62266;53.348;-1.496;2024-02-26T15:47:06;4.10;;;1.35;;
73919;SDS011;62266;53.348;-1.496;2024-02-26T15:49:50;2.23;;;0.40;;
73919;SDS011;62266;53.348;-1.496;2024-02-26T15:52:34;1.38;;;0.73;;
73919;SDS011;62266;53.348;-1.496;2024-02-26T15:55:18;5.20;;;0.70;;
73919;SDS011;62266;53.348;-1.496;2024-02-26T15:58:02;1.95;;;0.80;;
73919;SDS011;62266;53.348;-1.496;2024-02-26T16:00:47;1.70;;;0.90;;
73919;SDS011;62266;53.348;-1.496;2024-02-26T16:03:35;2.97;;;1.23;;
73919;SDS011;62266;53.348;-1.496;2024-02-26T16:09:21;2.17;;;0.70;;
73919;SDS011;62266;53.348;-1.496;2024-02-26T16:12:27;3.85;;;0.65;;
73919;SDS011;62266;53.348;-1.496;2024-02-26T16:15:21;1.83;;;0.52;;
73919;SDS011;62266;53.348;-1.496;2024-02-26T16:18:05;1.57;;;0.70;;
73919;SDS011;62266;53.348;-1.496;2024-02-26T16:20:50;1.67;;;0.70;;
73919;SDS011;62266;53.348;-1.496;2024-02-26T16:23:34;2.95;;;0.93;;
73919;SDS011;62266;53.348;-1.496;2024-02-26T16:26:18;1.85;;;0.98;;
73919;SDS011;62266;53.348;-1.496;2024-02-26T16:29:01;3.75;;;1.10;;
73919;SDS011;62266;53.348;-1.496;2024-02-26T16:31:45;1.63;;;1.10;;